sensor_id;sensor_type;location;lat;lon;timestamp;temperature;humidity
939;DHT22;456;53.584;9.968;2023-07-31T00:02:13;17.90;47.50
939;DHT22;456;53.584;9.968;2023-07-31T00:04:38;17.90;47.30
939;DHT22;456;53.584;9.968;2023-07-31T00:07:04;18.10;45.50
939;DHT22;456;53.584;9.968;2023-07-31T00:09:32;18.10;45.90
939;DHT22;456;53.584;9.968;2023-07-31T00:11:58;18.10;46.80
939;DHT22;456;53.584;9.968;2023-07-31T00:14:23;18.00;47.30
939;DHT22;456;53.584;9.968;2023-07-31T00:16:49;17.90;47.90
939;DHT22;456;53.584;9.968;2023-07-31T00:19:15;18.00;46.80
939;DHT22;456;53.584;9.968;2023-07-31T00:21:40;18.10;45.90
939;DHT22;456;53.584;9.968;2023-07-31T00:24:06;18.10;46.70
939;DHT22;456;53.584;9.968;2023-07-31T00:26:31;18.10;47.20
939;DHT22;456;53.584;9.968;2023-07-31T00:28:57;18.00;47.80
939;DHT22;456;53.584;9.968;2023-07-31T00:31:22;17.90;48.20
939;DHT22;456;53.584;9.968;2023-07-31T00:33:48;18.00;47.10
939;DHT22;456;53.584;9.968;2023-07-31T00:36:14;18.10;46.50
939;DHT22;456;53.584;9.968;2023-07-31T00:38:39;18.10;47.20
939;DHT22;456;53.584;9.968;2023-07-31T00:41:05;18.00;48.00
939;DHT22;456;53.584;9.968;2023-07-31T00:43:30;17.90;48.60
939;DHT22;456;53.584;9.968;2023-07-31T00:45:56;17.90;49.50
939;DHT22;456;53.584;9.968;2023-07-31T00:48:21;18.00;47.80
939;DHT22;456;53.584;9.968;2023-07-31T00:50:47;18.10;48.20
939;DHT22;456;53.584;9.968;2023-07-31T00:53:13;18.10;50.20
939;DHT22;456;53.584;9.968;2023-07-31T00:55:39;18.00;50.80
939;DHT22;456;53.584;9.968;2023-07-31T00:58:05;17.90;51.90
939;DHT22;456;53.584;9.968;2023-07-31T01:00:30;18.00;53.10
939;DHT22;456;53.584;9.968;2023-07-31T01:02:56;18.00;51.20
939;DHT22;456;53.584;9.968;2023-07-31T01:08:28;18.10;52.80
939;DHT22;456;53.584;9.968;2023-07-31T01:11:07;18.00;51.30
939;DHT22;456;53.584;9.968;2023-07-31T01:13:36;17.90;52.40
939;DHT22;456;53.584;9.968;2023-07-31T01:16:02;18.00;50.40
939;DHT22;456;53.584;9.968;2023-07-31T01:18:28;18.10;50.00
939;DHT22;456;53.584;9.968;2023-07-31T01:21:16;18.10;50.30
939;DHT22;456;53.584;9.968;2023-07-31T01:26:34;17.90;51.90
939;DHT22;456;53.584;9.968;2023-07-31T01:29:07;17.90;52.10
939;DHT22;456;53.584;9.968;2023-07-31T01:31:34;18.00;49.80
939;DHT22;456;53.584;9.968;2023-07-31T01:34:02;18.10;50.40
939;DHT22;456;53.584;9.968;2023-07-31T01:36:29;18.10;51.40
939;DHT22;456;53.584;9.968;2023-07-31T01:39:02;18.00;52.00
939;DHT22;456;53.584;9.968;2023-07-31T01:41:29;17.90;52.50
939;DHT22;456;53.584;9.968;2023-07-31T01:43:54;17.90;52.10
939;DHT22;456;53.584;9.968;2023-07-31T01:46:20;18.10;50.30
939;DHT22;456;53.584;9.968;2023-07-31T01:48:46;18.10;51.50
939;DHT22;456;53.584;9.968;2023-07-31T01:51:11;18.10;52.10
939;DHT22;456;53.584;9.968;2023-07-31T01:53:37;18.00;52.70
939;DHT22;456;53.584;9.968;2023-07-31T01:56:02;17.90;53.20
939;DHT22;456;53.584;9.968;2023-07-31T01:58:28;18.00;52.50
939;DHT22;456;53.584;9.968;2023-07-31T02:00:53;18.10;51.50
939;DHT22;456;53.584;9.968;2023-07-31T02:03:19;18.10;52.60
939;DHT22;456;53.584;9.968;2023-07-31T02:05:46;18.10;52.90
939;DHT22;456;53.584;9.968;2023-07-31T02:08:11;18.00;53.50
939;DHT22;456;53.584;9.968;2023-07-31T02:10:37;17.90;54.00
939;DHT22;456;53.584;9.968;2023-07-31T02:13:02;18.00;52.80
939;DHT22;456;53.584;9.968;2023-07-31T02:15:29;18.10;52.30
939;DHT22;456;53.584;9.968;2023-07-31T02:17:55;18.10;53.30
939;DHT22;456;53.584;9.968;2023-07-31T02:20:21;18.00;53.90
939;DHT22;456;53.584;9.968;2023-07-31T02:22:46;18.00;54.60
939;DHT22;456;53.584;9.968;2023-07-31T02:25:12;17.90;54.50
939;DHT22;456;53.584;9.968;2023-07-31T02:27:37;18.00;53.70
939;DHT22;456;53.584;9.968;2023-07-31T02:30:03;18.10;53.00
939;DHT22;456;53.584;9.968;2023-07-31T02:32:29;18.10;54.10
939;DHT22;456;53.584;9.968;2023-07-31T02:34:54;18.00;54.60
939;DHT22;456;53.584;9.968;2023-07-31T02:37:20;17.90;55.30
939;DHT22;456;53.584;9.968;2023-07-31T02:39:45;17.90;55.70
939;DHT22;456;53.584;9.968;2023-07-31T02:42:11;18.00;54.30
939;DHT22;456;53.584;9.968;2023-07-31T02:44:36;18.10;54.70
939;DHT22;456;53.584;9.968;2023-07-31T02:47:02;18.10;55.50
939;DHT22;456;53.584;9.968;2023-07-31T02:49:28;18.00;56.10
939;DHT22;456;53.584;9.968;2023-07-31T02:51:54;17.90;56.50
939;DHT22;456;53.584;9.968;2023-07-31T02:54:19;17.90;56.10
939;DHT22;456;53.584;9.968;2023-07-31T02:56:47;18.10;54.70
939;DHT22;456;53.584;9.968;2023-07-31T02:59:12;18.10;54.70
939;DHT22;456;53.584;9.968;2023-07-31T03:01:38;18.00;55.70
939;DHT22;456;53.584;9.968;2023-07-31T03:04:04;18.00;56.70
939;DHT22;456;53.584;9.968;2023-07-31T03:06:29;17.90;57.30
939;DHT22;456;53.584;9.968;2023-07-31T03:08:55;17.90;56.80
939;DHT22;456;53.584;9.968;2023-07-31T03:11:21;18.10;55.10
939;DHT22;456;53.584;9.968;2023-07-31T03:13:46;18.10;56.50
939;DHT22;456;53.584;9.968;2023-07-31T03:16:12;18.00;57.00
939;DHT22;456;53.584;9.968;2023-07-31T03:18:37;17.90;57.70
939;DHT22;456;53.584;9.968;2023-07-31T03:21:04;17.90;58.50
939;DHT22;456;53.584;9.968;2023-07-31T03:23:30;18.00;57.50
939;DHT22;456;53.584;9.968;2023-07-31T03:26:00;18.10;56.30
939;DHT22;456;53.584;9.968;2023-07-31T03:28:26;18.10;57.90
939;DHT22;456;53.584;9.968;2023-07-31T03:30:52;18.00;58.40
939;DHT22;456;53.584;9.968;2023-07-31T03:33:17;17.90;59.00
939;DHT22;456;53.584;9.968;2023-07-31T03:35:43;17.90;61.30
939;DHT22;456;53.584;9.968;2023-07-31T03:38:08;18.00;63.50
939;DHT22;456;53.584;9.968;2023-07-31T03:40:34;18.00;39.90
939;DHT22;456;53.584;9.968;2023-07-31T03:43:00;18.10;42.00
939;DHT22;456;53.584;9.968;2023-07-31T03:45:25;18.00;41.40
939;DHT22;456;53.584;9.968;2023-07-31T03:47:51;17.90;42.00
939;DHT22;456;53.584;9.968;2023-07-31T03:50:17;17.90;42.30
939;DHT22;456;53.584;9.968;2023-07-31T03:52:42;18.00;40.70
939;DHT22;456;53.584;9.968;2023-07-31T03:55:08;18.10;40.50
939;DHT22;456;53.584;9.968;2023-07-31T03:57:33;18.10;41.30
939;DHT22;456;53.584;9.968;2023-07-31T03:59:59;18.00;41.50
939;DHT22;456;53.584;9.968;2023-07-31T04:02:25;17.90;42.10
939;DHT22;456;53.584;9.968;2023-07-31T04:04:50;17.90;42.40
939;DHT22;456;53.584;9.968;2023-07-31T04:07:16;18.00;42.00
939;DHT22;456;53.584;9.968;2023-07-31T04:09:41;18.10;48.50
939;DHT22;456;53.584;9.968;2023-07-31T04:12:07;18.10;50.10
939;DHT22;456;53.584;9.968;2023-07-31T04:14:33;18.00;50.30
939;DHT22;456;53.584;9.968;2023-07-31T04:16:58;18.00;50.60
939;DHT22;456;53.584;9.968;2023-07-31T04:19:24;17.90;50.20
939;DHT22;456;53.584;9.968;2023-07-31T04:21:50;18.00;48.60
939;DHT22;456;53.584;9.968;2023-07-31T04:24:15;18.00;48.80
939;DHT22;456;53.584;9.968;2023-07-31T04:26:41;18.00;50.10
939;DHT22;456;53.584;9.968;2023-07-31T04:29:06;17.90;50.40
939;DHT22;456;53.584;9.968;2023-07-31T04:31:34;17.90;51.40
939;DHT22;456;53.584;9.968;2023-07-31T04:33:59;17.90;50.10
939;DHT22;456;53.584;9.968;2023-07-31T04:36:25;18.10;48.30
939;DHT22;456;53.584;9.968;2023-07-31T04:38:50;18.10;49.50
939;DHT22;456;53.584;9.968;2023-07-31T04:41:16;18.00;49.70
939;DHT22;456;53.584;9.968;2023-07-31T04:43:41;18.00;50.20
939;DHT22;456;53.584;9.968;2023-07-31T04:46:07;17.90;50.80
939;DHT22;456;53.584;9.968;2023-07-31T04:48:33;18.00;50.30
939;DHT22;456;53.584;9.968;2023-07-31T04:50:58;18.00;49.20
939;DHT22;456;53.584;9.968;2023-07-31T04:53:24;18.10;50.30
939;DHT22;456;53.584;9.968;2023-07-31T04:55:49;18.00;50.30
939;DHT22;456;53.584;9.968;2023-07-31T04:58:15;18.00;51.10
939;DHT22;456;53.584;9.968;2023-07-31T05:00:40;17.90;51.10
939;DHT22;456;53.584;9.968;2023-07-31T05:03:06;18.00;49.60
939;DHT22;456;53.584;9.968;2023-07-31T05:05:32;18.00;48.50
939;DHT22;456;53.584;9.968;2023-07-31T05:07:58;18.10;49.70
939;DHT22;456;53.584;9.968;2023-07-31T05:10:23;18.00;50.20
939;DHT22;456;53.584;9.968;2023-07-31T05:12:49;17.90;52.90
939;DHT22;456;53.584;9.968;2023-07-31T05:15:15;17.90;53.70
939;DHT22;456;53.584;9.968;2023-07-31T05:17:40;18.00;51.40
939;DHT22;456;53.584;9.968;2023-07-31T05:20:06;18.00;51.00
939;DHT22;456;53.584;9.968;2023-07-31T05:22:32;18.10;52.60
939;DHT22;456;53.584;9.968;2023-07-31T05:24:58;17.90;53.10
939;DHT22;456;53.584;9.968;2023-07-31T05:27:23;17.90;53.90
939;DHT22;456;53.584;9.968;2023-07-31T05:29:49;17.90;54.50
939;DHT22;456;53.584;9.968;2023-07-31T05:32:14;18.00;52.10
939;DHT22;456;53.584;9.968;2023-07-31T05:34:40;18.00;51.80
939;DHT22;456;53.584;9.968;2023-07-31T05:37:05;18.10;53.30
939;DHT22;456;53.584;9.968;2023-07-31T05:39:31;18.00;54.30
939;DHT22;456;53.584;9.968;2023-07-31T05:41:57;17.90;54.50
939;DHT22;456;53.584;9.968;2023-07-31T05:44:22;17.90;54.50
939;DHT22;456;53.584;9.968;2023-07-31T05:46:48;18.00;51.50
939;DHT22;456;53.584;9.968;2023-07-31T05:49:13;18.10;52.40
939;DHT22;456;53.584;9.968;2023-07-31T05:51:39;18.10;53.40
939;DHT22;456;53.584;9.968;2023-07-31T05:54:04;18.00;53.70
939;DHT22;456;53.584;9.968;2023-07-31T05:56:30;17.90;53.90
939;DHT22;456;53.584;9.968;2023-07-31T05:58:56;17.90;53.30
939;DHT22;456;53.584;9.968;2023-07-31T06:01:22;18.00;50.70
939;DHT22;456;53.584;9.968;2023-07-31T06:03:48;18.10;52.30
939;DHT22;456;53.584;9.968;2023-07-31T06:06:13;18.10;52.90
939;DHT22;456;53.584;9.968;2023-07-31T06:08:39;18.00;53.30
939;DHT22;456;53.584;9.968;2023-07-31T06:11:05;17.90;54.20
939;DHT22;456;53.584;9.968;2023-07-31T06:13:31;17.90;53.30
939;DHT22;456;53.584;9.968;2023-07-31T06:15:57;18.10;51.00
939;DHT22;456;53.584;9.968;2023-07-31T06:18:22;18.10;52.70
939;DHT22;456;53.584;9.968;2023-07-31T06:20:48;18.10;53.30
939;DHT22;456;53.584;9.968;2023-07-31T06:23:19;18.00;54.30
939;DHT22;456;53.584;9.968;2023-07-31T06:25:44;17.90;54.50
939;DHT22;456;53.584;9.968;2023-07-31T06:28:10;17.90;52.80
939;DHT22;456;53.584;9.968;2023-07-31T06:30:35;18.10;51.60
939;DHT22;456;53.584;9.968;2023-07-31T06:33:01;18.10;53.30
939;DHT22;456;53.584;9.968;2023-07-31T06:35:26;18.00;53.90
939;DHT22;456;53.584;9.968;2023-07-31T06:37:52;18.00;54.60
939;DHT22;456;53.584;9.968;2023-07-31T06:40:18;17.90;54.50
939;DHT22;456;53.584;9.968;2023-07-31T06:42:44;18.00;52.50
939;DHT22;456;53.584;9.968;2023-07-31T06:45:10;18.00;52.10
939;DHT22;456;53.584;9.968;2023-07-31T06:47:36;18.00;53.40
939;DHT22;456;53.584;9.968;2023-07-31T06:50:01;18.00;54.10
939;DHT22;456;53.584;9.968;2023-07-31T06:52:27;18.00;54.60
939;DHT22;456;53.584;9.968;2023-07-31T06:55:17;17.80;54.50
939;DHT22;456;53.584;9.968;2023-07-31T06:57:46;18.00;52.00
939;DHT22;456;53.584;9.968;2023-07-31T07:00:12;18.10;52.90
939;DHT22;456;53.584;9.968;2023-07-31T07:02:38;18.10;53.60
939;DHT22;456;53.584;9.968;2023-07-31T07:05:04;17.90;54.40
939;DHT22;456;53.584;9.968;2023-07-31T07:07:30;17.90;55.10
939;DHT22;456;53.584;9.968;2023-07-31T07:09:55;17.90;54.50
939;DHT22;456;53.584;9.968;2023-07-31T07:12:21;18.10;52.20
939;DHT22;456;53.584;9.968;2023-07-31T07:14:46;18.00;53.30
939;DHT22;456;53.584;9.968;2023-07-31T07:17:13;18.00;54.20
939;DHT22;456;53.584;9.968;2023-07-31T07:19:41;18.00;54.70
939;DHT22;456;53.584;9.968;2023-07-31T07:22:07;17.90;55.30
939;DHT22;456;53.584;9.968;2023-07-31T07:24:33;18.00;54.40
939;DHT22;456;53.584;9.968;2023-07-31T07:26:58;18.00;52.40
939;DHT22;456;53.584;9.968;2023-07-31T07:29:24;18.00;53.50
939;DHT22;456;53.584;9.968;2023-07-31T07:31:50;18.00;54.30
939;DHT22;456;53.584;9.968;2023-07-31T07:34:15;17.90;54.60
939;DHT22;456;53.584;9.968;2023-07-31T07:36:41;17.90;55.60
939;DHT22;456;53.584;9.968;2023-07-31T07:39:09;18.00;53.70
939;DHT22;456;53.584;9.968;2023-07-31T07:41:35;18.10;52.50
939;DHT22;456;53.584;9.968;2023-07-31T07:44:00;18.00;53.30
939;DHT22;456;53.584;9.968;2023-07-31T07:46:26;18.00;54.60
939;DHT22;456;53.584;9.968;2023-07-31T07:48:51;17.90;55.00
939;DHT22;456;53.584;9.968;2023-07-31T07:51:17;17.90;55.80
939;DHT22;456;53.584;9.968;2023-07-31T07:53:42;18.00;53.70
939;DHT22;456;53.584;9.968;2023-07-31T07:56:08;18.00;52.90
939;DHT22;456;53.584;9.968;2023-07-31T07:58:33;18.00;54.30
939;DHT22;456;53.584;9.968;2023-07-31T08:00:59;18.00;54.60
939;DHT22;456;53.584;9.968;2023-07-31T08:03:25;18.00;55.60
939;DHT22;456;53.584;9.968;2023-07-31T08:05:50;17.80;56.00
939;DHT22;456;53.584;9.968;2023-07-31T08:08:16;18.00;53.80
939;DHT22;456;53.584;9.968;2023-07-31T08:10:42;18.10;53.80
939;DHT22;456;53.584;9.968;2023-07-31T08:13:09;18.00;54.60
939;DHT22;456;53.584;9.968;2023-07-31T08:15:35;18.00;55.00
939;DHT22;456;53.584;9.968;2023-07-31T08:18:00;18.00;55.70
939;DHT22;456;53.584;9.968;2023-07-31T08:20:26;17.90;55.30
939;DHT22;456;53.584;9.968;2023-07-31T08:22:52;18.00;53.10
939;DHT22;456;53.584;9.968;2023-07-31T08:25:18;18.10;54.20
939;DHT22;456;53.584;9.968;2023-07-31T08:27:44;18.10;55.00
939;DHT22;456;53.584;9.968;2023-07-31T08:30:11;17.90;55.90
939;DHT22;456;53.584;9.968;2023-07-31T08:32:37;17.90;56.40
939;DHT22;456;53.584;9.968;2023-07-31T08:35:03;17.90;55.40
939;DHT22;456;53.584;9.968;2023-07-31T08:37:28;18.10;53.70
939;DHT22;456;53.584;9.968;2023-07-31T08:39:54;18.10;54.60
939;DHT22;456;53.584;9.968;2023-07-31T08:42:20;18.00;54.60
939;DHT22;456;53.584;9.968;2023-07-31T08:44:46;18.00;56.20
939;DHT22;456;53.584;9.968;2023-07-31T08:47:12;17.90;56.20
939;DHT22;456;53.584;9.968;2023-07-31T08:49:38;18.00;54.60
939;DHT22;456;53.584;9.968;2023-07-31T08:52:06;18.00;53.90
939;DHT22;456;53.584;9.968;2023-07-31T08:54:31;18.10;54.80
939;DHT22;456;53.584;9.968;2023-07-31T08:56:58;18.00;55.30
939;DHT22;456;53.584;9.968;2023-07-31T08:59:28;17.90;56.50
939;DHT22;456;53.584;9.968;2023-07-31T09:01:55;17.90;57.10
939;DHT22;456;53.584;9.968;2023-07-31T09:04:23;18.00;54.80
939;DHT22;456;53.584;9.968;2023-07-31T09:06:51;18.10;54.80
939;DHT22;456;53.584;9.968;2023-07-31T09:09:21;18.00;56.20
939;DHT22;456;53.584;9.968;2023-07-31T09:11:46;17.90;56.70
939;DHT22;456;53.584;9.968;2023-07-31T09:14:13;17.90;57.70
939;DHT22;456;53.584;9.968;2023-07-31T09:17:11;17.90;57.40
939;DHT22;456;53.584;9.968;2023-07-31T09:19:37;18.00;55.50
939;DHT22;456;53.584;9.968;2023-07-31T09:22:04;18.00;56.20
939;DHT22;456;53.584;9.968;2023-07-31T09:24:33;18.00;56.70
939;DHT22;456;53.584;9.968;2023-07-31T09:27:00;18.00;57.10
939;DHT22;456;53.584;9.968;2023-07-31T09:29:27;17.90;57.40
939;DHT22;456;53.584;9.968;2023-07-31T09:31:54;18.00;55.60
939;DHT22;456;53.584;9.968;2023-07-31T09:34:21;18.10;54.70
939;DHT22;456;53.584;9.968;2023-07-31T09:36:53;18.10;55.70
939;DHT22;456;53.584;9.968;2023-07-31T09:39:19;18.00;56.70
939;DHT22;456;53.584;9.968;2023-07-31T09:41:47;17.90;57.20
939;DHT22;456;53.584;9.968;2023-07-31T09:44:13;17.90;57.80
939;DHT22;456;53.584;9.968;2023-07-31T09:46:39;18.00;55.60
939;DHT22;456;53.584;9.968;2023-07-31T09:49:12;18.10;55.60
939;DHT22;456;53.584;9.968;2023-07-31T09:51:39;18.10;56.30
939;DHT22;456;53.584;9.968;2023-07-31T09:54:16;18.00;56.70
939;DHT22;456;53.584;9.968;2023-07-31T09:56:47;17.90;57.20
939;DHT22;456;53.584;9.968;2023-07-31T09:59:14;17.90;57.60
939;DHT22;456;53.584;9.968;2023-07-31T10:01:42;18.00;55.40
939;DHT22;456;53.584;9.968;2023-07-31T10:04:12;18.10;56.40
939;DHT22;456;53.584;9.968;2023-07-31T10:06:39;18.10;57.50
939;DHT22;456;53.584;9.968;2023-07-31T10:09:07;18.00;59.00
939;DHT22;456;53.584;9.968;2023-07-31T10:11:47;17.90;60.40
939;DHT22;456;53.584;9.968;2023-07-31T10:14:20;17.90;59.30
939;DHT22;456;53.584;9.968;2023-07-31T10:16:47;18.00;58.30
939;DHT22;456;53.584;9.968;2023-07-31T10:19:14;18.10;59.30
939;DHT22;456;53.584;9.968;2023-07-31T10:21:40;18.00;61.60
939;DHT22;456;53.584;9.968;2023-07-31T10:24:07;17.90;63.30
939;DHT22;456;53.584;9.968;2023-07-31T10:26:35;17.90;65.40
939;DHT22;456;53.584;9.968;2023-07-31T10:29:03;18.00;63.50
939;DHT22;456;53.584;9.968;2023-07-31T10:31:30;18.10;62.70
939;DHT22;456;53.584;9.968;2023-07-31T10:33:58;18.00;63.40
939;DHT22;456;53.584;9.968;2023-07-31T10:36:24;18.00;64.30
939;DHT22;456;53.584;9.968;2023-07-31T10:38:50;18.00;64.60
939;DHT22;456;53.584;9.968;2023-07-31T10:41:16;17.90;64.60
939;DHT22;456;53.584;9.968;2023-07-31T10:43:42;18.00;62.80
939;DHT22;456;53.584;9.968;2023-07-31T10:46:14;18.00;63.40
939;DHT22;456;53.584;9.968;2023-07-31T10:48:41;18.00;64.00
939;DHT22;456;53.584;9.968;2023-07-31T10:51:08;18.00;69.00
939;DHT22;456;53.584;9.968;2023-07-31T10:53:43;17.90;69.80
939;DHT22;456;53.584;9.968;2023-07-31T10:56:10;17.90;69.60
939;DHT22;456;53.584;9.968;2023-07-31T10:58:44;18.10;67.60
939;DHT22;456;53.584;9.968;2023-07-31T11:01:09;18.10;70.00
939;DHT22;456;53.584;9.968;2023-07-31T11:03:49;18.10;71.00
939;DHT22;456;53.584;9.968;2023-07-31T11:18:42;18.00;41.40
939;DHT22;456;53.584;9.968;2023-07-31T11:21:15;18.00;42.00
939;DHT22;456;53.584;9.968;2023-07-31T11:23:47;17.90;42.10
939;DHT22;456;53.584;9.968;2023-07-31T11:26:12;18.00;40.30
939;DHT22;456;53.584;9.968;2023-07-31T11:28:38;18.10;40.50
939;DHT22;456;53.584;9.968;2023-07-31T11:31:05;18.00;41.20
939;DHT22;456;53.584;9.968;2023-07-31T11:33:33;18.00;41.50
939;DHT22;456;53.584;9.968;2023-07-31T11:35:59;17.90;42.00
939;DHT22;456;53.584;9.968;2023-07-31T11:38:27;17.90;41.70
939;DHT22;456;53.584;9.968;2023-07-31T11:40:54;18.00;39.70
939;DHT22;456;53.584;9.968;2023-07-31T11:43:20;18.10;40.90
939;DHT22;456;53.584;9.968;2023-07-31T11:45:47;18.00;41.30
939;DHT22;456;53.584;9.968;2023-07-31T11:48:24;18.00;41.60
939;DHT22;456;53.584;9.968;2023-07-31T11:50:53;17.90;42.10
939;DHT22;456;53.584;9.968;2023-07-31T11:53:35;17.90;41.10
939;DHT22;456;53.584;9.968;2023-07-31T11:56:02;18.10;40.00
939;DHT22;456;53.584;9.968;2023-07-31T11:58:31;18.10;41.30
939;DHT22;456;53.584;9.968;2023-07-31T12:00:58;18.00;41.20
939;DHT22;456;53.584;9.968;2023-07-31T12:03:24;17.90;41.80
939;DHT22;456;53.584;9.968;2023-07-31T12:05:50;17.90;42.10
939;DHT22;456;53.584;9.968;2023-07-31T12:08:15;18.00;40.30
939;DHT22;456;53.584;9.968;2023-07-31T12:10:42;18.10;40.30
939;DHT22;456;53.584;9.968;2023-07-31T12:13:12;18.10;41.40
939;DHT22;456;53.584;9.968;2023-07-31T12:15:45;18.00;41.20
939;DHT22;456;53.584;9.968;2023-07-31T12:18:13;17.90;41.90
939;DHT22;456;53.584;9.968;2023-07-31T12:20:47;17.90;42.00
939;DHT22;456;53.584;9.968;2023-07-31T12:23:14;18.00;39.90
939;DHT22;456;53.584;9.968;2023-07-31T12:25:40;18.10;40.60
939;DHT22;456;53.584;9.968;2023-07-31T12:28:07;18.10;41.30
939;DHT22;456;53.584;9.968;2023-07-31T12:30:37;18.00;41.30
939;DHT22;456;53.584;9.968;2023-07-31T12:33:15;17.90;41.80
939;DHT22;456;53.584;9.968;2023-07-31T12:35:44;17.90;41.30
939;DHT22;456;53.584;9.968;2023-07-31T12:38:11;18.10;40.50
939;DHT22;456;53.584;9.968;2023-07-31T12:40:39;18.10;41.30
939;DHT22;456;53.584;9.968;2023-07-31T12:43:05;18.00;41.20
939;DHT22;456;53.584;9.968;2023-07-31T12:45:31;18.00;41.70
939;DHT22;456;53.584;9.968;2023-07-31T12:47:58;17.90;42.00
939;DHT22;456;53.584;9.968;2023-07-31T12:50:23;17.90;41.10
939;DHT22;456;53.584;9.968;2023-07-31T12:52:49;18.10;40.30
939;DHT22;456;53.584;9.968;2023-07-31T12:55:15;18.10;41.30
939;DHT22;456;53.584;9.968;2023-07-31T12:57:40;18.00;41.20
939;DHT22;456;53.584;9.968;2023-07-31T13:00:08;17.90;41.70
939;DHT22;456;53.584;9.968;2023-07-31T13:02:33;17.90;42.00
939;DHT22;456;53.584;9.968;2023-07-31T13:04:59;18.00;41.20
939;DHT22;456;53.584;9.968;2023-07-31T13:07:24;18.10;40.50
939;DHT22;456;53.584;9.968;2023-07-31T13:09:51;18.10;41.30
939;DHT22;456;53.584;9.968;2023-07-31T13:12:16;18.00;41.30
939;DHT22;456;53.584;9.968;2023-07-31T13:14:42;17.90;41.70
939;DHT22;456;53.584;9.968;2023-07-31T13:17:07;17.90;42.10
939;DHT22;456;53.584;9.968;2023-07-31T13:19:33;18.00;40.30
939;DHT22;456;53.584;9.968;2023-07-31T13:21:59;18.00;41.10
939;DHT22;456;53.584;9.968;2023-07-31T13:24:24;18.10;41.30
939;DHT22;456;53.584;9.968;2023-07-31T13:26:50;18.00;41.20
939;DHT22;456;53.584;9.968;2023-07-31T13:29:15;17.90;41.80
939;DHT22;456;53.584;9.968;2023-07-31T13:31:41;17.90;42.20
939;DHT22;456;53.584;9.968;2023-07-31T13:34:06;18.00;40.20
939;DHT22;456;53.584;9.968;2023-07-31T13:36:32;18.10;40.60
939;DHT22;456;53.584;9.968;2023-07-31T13:38:59;18.10;41.30
939;DHT22;456;53.584;9.968;2023-07-31T13:41:26;18.00;41.30
939;DHT22;456;53.584;9.968;2023-07-31T13:43:51;17.90;41.90
939;DHT22;456;53.584;9.968;2023-07-31T13:46:17;17.90;41.70
939;DHT22;456;53.584;9.968;2023-07-31T13:48:42;18.00;40.00
939;DHT22;456;53.584;9.968;2023-07-31T13:51:08;18.10;40.80
939;DHT22;456;53.584;9.968;2023-07-31T13:53:33;18.00;41.20
939;DHT22;456;53.584;9.968;2023-07-31T13:55:59;18.00;41.50
939;DHT22;456;53.584;9.968;2023-07-31T13:58:24;17.90;42.10
939;DHT22;456;53.584;9.968;2023-07-31T14:00:50;17.90;41.60
939;DHT22;456;53.584;9.968;2023-07-31T14:03:16;18.10;39.90
939;DHT22;456;53.584;9.968;2023-07-31T14:05:41;18.10;41.30
939;DHT22;456;53.584;9.968;2023-07-31T14:08:07;18.00;41.20
939;DHT22;456;53.584;9.968;2023-07-31T14:10:32;18.00;41.60
939;DHT22;456;53.584;9.968;2023-07-31T14:12:58;17.90;42.00
939;DHT22;456;53.584;9.968;2023-07-31T14:15:24;17.90;41.10
939;DHT22;456;53.584;9.968;2023-07-31T14:17:49;18.10;39.70
939;DHT22;456;53.584;9.968;2023-07-31T14:20:15;18.10;41.30
939;DHT22;456;53.584;9.968;2023-07-31T14:22:40;18.00;41.20
939;DHT22;456;53.584;9.968;2023-07-31T14:25:06;18.00;41.70
939;DHT22;456;53.584;9.968;2023-07-31T14:27:32;17.90;42.00
939;DHT22;456;53.584;9.968;2023-07-31T14:29:58;18.00;41.20
939;DHT22;456;53.584;9.968;2023-07-31T14:32:23;18.10;40.20
939;DHT22;456;53.584;9.968;2023-07-31T14:34:51;18.10;41.30
939;DHT22;456;53.584;9.968;2023-07-31T14:37:16;18.00;41.20
939;DHT22;456;53.584;9.968;2023-07-31T14:39:42;17.90;41.70
939;DHT22;456;53.584;9.968;2023-07-31T14:42:09;17.90;42.10
939;DHT22;456;53.584;9.968;2023-07-31T14:44:34;18.00;40.50
939;DHT22;456;53.584;9.968;2023-07-31T14:47:00;18.10;40.50
939;DHT22;456;53.584;9.968;2023-07-31T14:49:25;18.10;41.30
939;DHT22;456;53.584;9.968;2023-07-31T14:51:53;18.00;41.30
939;DHT22;456;53.584;9.968;2023-07-31T14:54:19;17.90;41.90
939;DHT22;456;53.584;9.968;2023-07-31T14:56:44;17.90;42.20
939;DHT22;456;53.584;9.968;2023-07-31T14:59:10;18.00;40.10
939;DHT22;456;53.584;9.968;2023-07-31T15:01:37;18.10;40.50
939;DHT22;456;53.584;9.968;2023-07-31T15:04:02;18.00;41.20
939;DHT22;456;53.584;9.968;2023-07-31T15:06:28;18.00;41.60
939;DHT22;456;53.584;9.968;2023-07-31T15:08:53;17.90;42.00
939;DHT22;456;53.584;9.968;2023-07-31T15:11:19;17.90;41.70
939;DHT22;456;53.584;9.968;2023-07-31T15:13:44;18.00;40.00
939;DHT22;456;53.584;9.968;2023-07-31T15:16:10;18.10;40.70
939;DHT22;456;53.584;9.968;2023-07-31T15:18:36;18.10;41.40
939;DHT22;456;53.584;9.968;2023-07-31T15:21:01;18.00;41.50
939;DHT22;456;53.584;9.968;2023-07-31T15:23:27;17.90;41.90
939;DHT22;456;53.584;9.968;2023-07-31T15:25:52;17.90;41.50
939;DHT22;456;53.584;9.968;2023-07-31T15:28:18;18.10;39.70
939;DHT22;456;53.584;9.968;2023-07-31T15:30:44;18.10;40.90
939;DHT22;456;53.584;9.968;2023-07-31T15:33:10;18.00;41.20
939;DHT22;456;53.584;9.968;2023-07-31T15:35:36;18.00;42.30
939;DHT22;456;53.584;9.968;2023-07-31T15:38:01;17.90;42.00
939;DHT22;456;53.584;9.968;2023-07-31T15:40:27;17.90;41.10
939;DHT22;456;53.584;9.968;2023-07-31T15:42:52;18.10;40.00
939;DHT22;456;53.584;9.968;2023-07-31T15:45:18;18.10;41.30
939;DHT22;456;53.584;9.968;2023-07-31T15:47:44;18.00;41.30
939;DHT22;456;53.584;9.968;2023-07-31T15:50:09;18.00;41.70
939;DHT22;456;53.584;9.968;2023-07-31T15:52:35;17.90;42.10
939;DHT22;456;53.584;9.968;2023-07-31T15:55:01;18.00;41.10
939;DHT22;456;53.584;9.968;2023-07-31T15:57:26;18.10;40.20
939;DHT22;456;53.584;9.968;2023-07-31T15:59:52;18.10;41.10
939;DHT22;456;53.584;9.968;2023-07-31T16:02:17;18.00;41.20
939;DHT22;456;53.584;9.968;2023-07-31T16:04:43;17.90;41.80
939;DHT22;456;53.584;9.968;2023-07-31T16:07:09;17.90;42.20
939;DHT22;456;53.584;9.968;2023-07-31T16:09:34;18.00;40.40
939;DHT22;456;53.584;9.968;2023-07-31T16:12:00;18.10;40.20
939;DHT22;456;53.584;9.968;2023-07-31T16:14:25;18.10;41.40
939;DHT22;456;53.584;9.968;2023-07-31T16:16:51;18.00;41.20
939;DHT22;456;53.584;9.968;2023-07-31T16:19:17;17.90;41.80
939;DHT22;456;53.584;9.968;2023-07-31T16:21:42;17.90;42.10
939;DHT22;456;53.584;9.968;2023-07-31T16:24:08;18.00;40.20
939;DHT22;456;53.584;9.968;2023-07-31T16:26:33;18.00;41.10
939;DHT22;456;53.584;9.968;2023-07-31T16:28:59;18.00;41.20
939;DHT22;456;53.584;9.968;2023-07-31T16:31:25;18.00;41.50
939;DHT22;456;53.584;9.968;2023-07-31T16:33:51;17.90;42.00
939;DHT22;456;53.584;9.968;2023-07-31T16:36:17;17.90;41.80
939;DHT22;456;53.584;9.968;2023-07-31T16:38:44;18.00;39.80
939;DHT22;456;53.584;9.968;2023-07-31T16:41:10;18.10;41.00
939;DHT22;456;53.584;9.968;2023-07-31T16:43:36;18.00;41.30
939;DHT22;456;53.584;9.968;2023-07-31T16:46:01;18.00;41.40
939;DHT22;456;53.584;9.968;2023-07-31T16:48:27;17.90;42.00